createdAt,value
2022-12-02T00:04:22.079Z,3.05
2022-12-02T00:09:29.210Z,3.01
2022-12-02T00:14:36.257Z,2.87
2022-12-02T00:19:38.958Z,2.89
2022-12-02T00:24:41.665Z,2.98
2022-12-02T00:29:45.733Z,3.00
2022-12-02T00:34:48.654Z,2.95
2022-12-02T00:39:51.660Z,2.90
2022-12-02T00:45:13.243Z,2.87
2022-12-02T00:50:16.325Z,3.05
2022-12-02T00:55:19.192Z,2.96
2022-12-02T01:00:24.240Z,2.92
2022-12-02T01:05:26.966Z,3.12
2022-12-02T01:10:29.791Z,3.07
2022-12-02T01:15:34.240Z,2.90
2022-12-02T01:20:37.013Z,2.91
2022-12-02T01:25:41.275Z,3.02
2022-12-02T01:30:45.455Z,2.98
2022-12-02T01:35:48.290Z,2.90
2022-12-02T01:40:51.016Z,2.98
2022-12-02T01:45:55.304Z,3.05
2022-12-02T01:50:58.545Z,3.05
2022-12-02T01:56:01.394Z,3.04
2022-12-02T02:01:22.595Z,2.95
2022-12-02T02:06:26.229Z,2.97
2022-12-02T02:11:29.030Z,2.95
2022-12-02T02:16:38.463Z,2.94
2022-12-02T02:21:45.350Z,2.81
2022-12-02T02:26:50.474Z,2.95
2022-12-02T02:31:53.315Z,2.92
2022-12-02T02:36:56.238Z,2.99
2022-12-02T02:42:00.760Z,3.04
2022-12-02T02:47:03.739Z,3.06
2022-12-02T02:52:07.088Z,2.96
2022-12-02T02:57:12.655Z,3.01
2022-12-02T03:02:15.707Z,3.01
2022-12-02T03:07:18.671Z,2.99
2022-12-02T03:12:23.521Z,2.89
2022-12-02T03:17:26.315Z,2.95
2022-12-02T03:22:29.129Z,2.82
2022-12-02T03:27:33.492Z,2.98
2022-12-02T03:32:36.586Z,2.89
2022-12-02T03:37:39.355Z,2.89
2022-12-02T03:42:43.581Z,2.94
2022-12-02T03:47:46.388Z,2.92
2022-12-02T03:52:49.522Z,2.86
2022-12-02T03:57:53.780Z,2.94
2022-12-02T04:02:56.535Z,2.88
2022-12-02T04:07:59.482Z,2.75
2022-12-02T04:13:03.699Z,2.68
2022-12-02T04:18:06.418Z,2.72
2022-12-02T04:23:09.155Z,2.66
2022-12-02T04:28:13.235Z,2.68
2022-12-02T04:33:16.099Z,2.79
2022-12-02T04:38:18.797Z,2.53
2022-12-02T04:43:22.835Z,2.69
2022-12-02T04:48:25.531Z,2.74
2022-12-02T04:53:28.201Z,2.81
2022-12-02T04:58:32.255Z,2.62
2022-12-02T05:03:35.049Z,2.59
2022-12-02T05:08:37.759Z,2.48
2022-12-02T05:13:41.930Z,2.62
2022-12-02T05:18:44.562Z,2.71
2022-12-02T05:23:47.189Z,2.76
2022-12-02T05:28:51.188Z,2.72
2022-12-02T05:33:53.846Z,2.50
2022-12-02T05:38:56.484Z,2.49
2022-12-02T05:44:05.676Z,2.50
2022-12-02T05:49:18.427Z,2.45
2022-12-02T05:54:21.312Z,2.35
2022-12-02T05:59:25.403Z,2.34
2022-12-02T06:04:30.355Z,2.34
2022-12-02T06:09:34.490Z,2.34
2022-12-02T06:14:40.827Z,2.29
2022-12-02T06:19:45.944Z,2.41
2022-12-02T06:24:49.146Z,2.23
2022-12-02T06:29:56.851Z,2.33
2022-12-02T06:34:59.591Z,2.41
2022-12-02T06:40:27.497Z,2.33
2022-12-02T06:45:30.378Z,2.37
2022-12-02T06:50:41.847Z,2.44
2022-12-02T06:55:45.310Z,2.23
2022-12-02T07:00:54.282Z,2.18
2022-12-02T07:06:00.873Z,2.32
2022-12-02T07:11:03.610Z,2.22
2022-12-02T07:16:31.094Z,2.25
2022-12-02T07:21:34.283Z,2.30
2022-12-02T07:26:36.985Z,2.59
2022-12-02T07:31:44.222Z,3.18
2022-12-02T07:36:46.989Z,2.85
2022-12-02T07:41:49.747Z,2.28
2022-12-02T07:46:53.867Z,2.22
2022-12-02T07:51:57.517Z,2.23
2022-12-02T07:57:00.281Z,2.26
2022-12-02T08:02:04.491Z,2.21
2022-12-02T08:07:07.365Z,2.11
2022-12-02T08:12:10.071Z,2.22
2022-12-02T08:17:14.126Z,1.93
2022-12-02T08:22:16.937Z,2.30
2022-12-02T08:27:19.679Z,2.08
2022-12-02T08:32:23.954Z,2.24
2022-12-02T08:37:26.952Z,2.24
2022-12-02T08:42:29.724Z,2.13
2022-12-02T08:47:33.804Z,2.08
2022-12-02T08:52:36.542Z,2.20
2022-12-02T08:57:39.328Z,2.26
2022-12-02T09:02:43.523Z,2.36
2022-12-02T09:07:46.289Z,2.09
2022-12-02T09:12:49.071Z,2.31
2022-12-02T09:17:53.179Z,2.44
2022-12-02T09:22:56.348Z,2.44
2022-12-02T09:27:59.073Z,2.60
2022-12-02T09:33:03.191Z,2.53
2022-12-02T09:38:05.930Z,2.34
2022-12-02T09:43:08.731Z,2.60
2022-12-02T09:48:13.603Z,2.85
2022-12-02T09:53:17.428Z,2.78
2022-12-02T09:58:22.456Z,2.73
2022-12-02T10:03:28.462Z,2.82
2022-12-02T10:08:32.470Z,2.90
2022-12-02T10:13:39.930Z,2.85
2022-12-02T10:18:44.122Z,3.07
2022-12-02T10:23:55.508Z,2.87
2022-12-02T10:29:04.639Z,2.99
2022-12-02T10:34:15.550Z,3.10
2022-12-02T10:39:22.873Z,3.30
2022-12-02T10:44:25.636Z,3.35
2022-12-02T10:49:35.376Z,3.19
2022-12-02T10:54:43.672Z,3.24
2022-12-02T10:59:46.710Z,3.06
2022-12-02T11:04:51.168Z,3.09
2022-12-02T11:09:55.536Z,3.07
2022-12-02T11:14:58.414Z,3.31
2022-12-02T11:20:21.323Z,3.28
2022-12-02T11:25:56.391Z,3.11
2022-12-02T11:31:24.123Z,3.25
2022-12-02T11:36:29.189Z,2.79
2022-12-02T11:41:47.539Z,3.03
2022-12-02T11:46:51.139Z,3.20
2022-12-02T11:52:07.928Z,3.04
2022-12-02T11:57:18.758Z,3.07
2022-12-02T12:02:23.233Z,3.15
2022-12-02T12:07:41.763Z,2.86
2022-12-02T12:13:14.079Z,2.91
2022-12-02T12:18:38.175Z,3.15
2022-12-02T12:23:43.594Z,3.02
2022-12-02T12:28:46.270Z,3.07
2022-12-02T12:33:48.951Z,3.06
2022-12-02T12:38:53.533Z,2.80
2022-12-02T12:43:56.302Z,2.87
2022-12-02T12:48:59.346Z,2.88
2022-12-02T12:54:03.404Z,2.81
2022-12-02T12:59:06.096Z,2.71
2022-12-02T13:04:08.764Z,2.68
2022-12-02T13:09:12.889Z,2.71
2022-12-02T13:14:15.592Z,2.35
2022-12-02T13:19:18.299Z,2.70
2022-12-02T13:24:22.465Z,2.81
2022-12-02T13:29:25.207Z,2.70
2022-12-02T13:34:27.896Z,2.82
2022-12-02T13:39:31.938Z,2.66
2022-12-02T13:44:36.241Z,2.60
2022-12-02T13:49:40.049Z,2.63
2022-12-02T13:54:44.318Z,2.72
2022-12-02T13:59:47.129Z,2.53
2022-12-02T14:04:50.233Z,2.30
2022-12-02T14:09:54.607Z,2.40
2022-12-02T14:14:57.390Z,2.37
2022-12-02T14:20:00.228Z,2.33
2022-12-02T14:25:04.516Z,2.03
2022-12-02T14:30:08.751Z,2.20
2022-12-02T14:35:12.055Z,1.94
2022-12-02T14:40:16.241Z,1.74
2022-12-02T14:45:19.001Z,1.96
2022-12-02T14:50:26.814Z,1.68
2022-12-02T14:55:31.378Z,1.91
2022-12-02T15:00:34.209Z,1.69
2022-12-02T15:05:36.884Z,1.94
2022-12-02T15:10:41.909Z,1.88
2022-12-02T15:15:51.772Z,1.51
2022-12-02T15:20:57.514Z,1.80
2022-12-02T15:26:01.535Z,1.79
2022-12-02T15:31:04.337Z,1.67
2022-12-02T15:36:07.551Z,1.63
2022-12-02T15:41:11.554Z,1.57
2022-12-02T15:46:14.287Z,1.60
2022-12-02T15:51:16.972Z,1.59
2022-12-02T15:56:21.023Z,1.64
2022-12-02T16:01:23.864Z,1.60
2022-12-02T16:06:26.626Z,1.61
2022-12-02T16:11:30.667Z,1.63
2022-12-02T16:16:33.430Z,1.56
2022-12-02T16:21:36.185Z,1.38
2022-12-02T16:26:40.235Z,1.51
2022-12-02T16:31:43.019Z,1.56
2022-12-02T16:36:45.739Z,1.37
2022-12-02T16:41:49.764Z,1.56
2022-12-02T16:46:52.478Z,1.29
2022-12-02T16:51:55.181Z,1.20
2022-12-02T16:56:59.370Z,1.39
2022-12-02T17:02:02.101Z,1.45
2022-12-02T17:07:05.006Z,1.52
2022-12-02T17:12:09.083Z,1.40
2022-12-02T17:17:37.856Z,1.36
2022-12-02T17:22:34.499Z,1.41
2022-12-02T17:27:38.520Z,1.34
2022-12-02T17:32:42.152Z,1.26
2022-12-02T17:37:44.881Z,1.17
2022-12-02T17:42:48.912Z,1.08
2022-12-02T17:47:51.588Z,0.91
2022-12-02T17:52:54.273Z,1.00
2022-12-02T17:57:58.320Z,1.02
2022-12-02T18:03:01.152Z,0.98
2022-12-02T18:08:03.963Z,0.91
2022-12-02T18:13:08.082Z,0.90
2022-12-02T18:18:10.916Z,0.86
2022-12-02T18:23:13.675Z,0.72
2022-12-02T18:28:17.765Z,0.85
2022-12-02T18:33:20.499Z,0.74
2022-12-02T18:38:23.171Z,0.80
2022-12-02T18:43:29.792Z,0.88
2022-12-02T18:48:36.079Z,0.89
2022-12-02T18:53:38.756Z,1.04
2022-12-02T18:58:42.843Z,0.92
2022-12-02T19:03:45.539Z,1.02
2022-12-02T19:08:48.256Z,0.98
2022-12-02T19:13:52.333Z,1.13
2022-12-02T19:18:55.066Z,1.21
2022-12-02T19:23:57.796Z,1.22
2022-12-02T19:29:01.843Z,1.17
2022-12-02T19:34:04.544Z,1.19
2022-12-02T19:39:07.236Z,1.17
2022-12-02T19:44:11.338Z,1.15
2022-12-02T19:49:14.043Z,1.10
2022-12-02T19:54:17.737Z,1.20
2022-12-02T19:59:21.785Z,0.95
2022-12-02T20:04:40.943Z,1.22
2022-12-02T20:09:44.499Z,1.08
2022-12-02T20:14:48.701Z,1.06
2022-12-02T20:19:51.467Z,1.26
2022-12-02T20:24:54.459Z,1.18
2022-12-02T20:29:58.720Z,1.20
2022-12-02T20:35:01.973Z,1.13
2022-12-02T20:40:05.629Z,1.15
2022-12-02T20:45:11.074Z,1.25
2022-12-02T20:50:13.798Z,1.10
2022-12-02T20:55:16.512Z,1.33
2022-12-02T21:00:20.974Z,1.27
2022-12-02T21:05:23.711Z,1.25
2022-12-02T21:10:26.431Z,1.27
2022-12-02T21:15:30.492Z,1.35
2022-12-02T21:20:34.787Z,1.23
2022-12-02T21:25:37.953Z,1.22
2022-12-02T21:30:43.247Z,1.22
2022-12-02T21:35:45.971Z,1.31
2022-12-02T21:40:48.712Z,1.35
2022-12-02T21:45:52.879Z,1.17
2022-12-02T21:50:55.650Z,1.25
2022-12-02T21:55:58.357Z,1.23
2022-12-02T22:01:19.804Z,1.38
2022-12-02T22:06:22.545Z,1.22
2022-12-02T22:11:25.684Z,1.38
2022-12-02T22:16:31.482Z,1.30
2022-12-02T22:21:34.237Z,1.23
2022-12-02T22:26:36.949Z,1.37
2022-12-02T22:31:41.129Z,1.31
2022-12-02T22:36:43.898Z,1.42
2022-12-02T22:41:46.600Z,1.32
2022-12-02T22:46:50.636Z,1.26
2022-12-02T22:51:53.391Z,1.30
2022-12-02T22:56:56.053Z,1.32
2022-12-02T23:02:00.200Z,1.34
2022-12-02T23:07:02.950Z,1.24
2022-12-02T23:12:06.019Z,1.33
2022-12-02T23:17:10.193Z,1.35
2022-12-02T23:22:17.027Z,1.36
2022-12-02T23:27:19.782Z,1.30
2022-12-02T23:32:23.892Z,1.32
2022-12-02T23:37:26.686Z,1.42
2022-12-02T23:42:31.772Z,1.40
2022-12-02T23:47:39.429Z,1.41
2022-12-02T23:52:42.189Z,1.33
2022-12-02T23:57:46.067Z,1.26
